createdAt,value
2019-05-06T00:00:04.740Z,5.10
2019-05-06T00:02:34.211Z,5.10
2019-05-06T00:05:04.118Z,5.00
2019-05-06T00:07:34.015Z,5.00
2019-05-06T00:10:05.623Z,4.90
2019-05-06T00:12:34.521Z,4.80
2019-05-06T00:15:04.408Z,4.70
2019-05-06T00:17:34.926Z,4.60
2019-05-06T00:20:04.851Z,4.50
2019-05-06T00:22:34.431Z,4.50
2019-05-06T00:25:09.823Z,4.50
2019-05-06T00:28:07.376Z,4.40
2019-05-06T00:30:36.651Z,4.40
2019-05-06T00:33:05.943Z,4.40
2019-05-06T00:35:35.180Z,4.40
2019-05-06T00:38:04.544Z,4.40
2019-05-06T00:40:36.901Z,4.40
2019-05-06T00:43:08.180Z,4.40
2019-05-06T00:45:37.496Z,4.60
2019-05-06T00:48:06.879Z,4.60
2019-05-06T00:50:36.163Z,4.60
2019-05-06T00:53:07.068Z,4.70
2019-05-06T00:55:36.243Z,4.70
2019-05-06T00:58:05.491Z,4.80
2019-05-06T01:00:37.831Z,4.70
2019-05-06T01:03:07.457Z,4.80
2019-05-06T01:05:36.808Z,4.70
2019-05-06T01:08:06.172Z,4.60
2019-05-06T01:10:35.569Z,4.60
2019-05-06T01:13:24.168Z,4.70
2019-05-06T01:15:54.793Z,4.70
2019-05-06T01:18:24.532Z,4.60
2019-05-06T01:21:09.994Z,4.60
2019-05-06T01:23:43.733Z,4.60
2019-05-06T01:26:15.131Z,4.60
2019-05-06T01:28:46.485Z,4.60
2019-05-06T01:31:16.188Z,4.50
2019-05-06T01:33:45.570Z,4.50
2019-05-06T01:36:14.928Z,4.60
2019-05-06T01:39:07.508Z,4.60
2019-05-06T01:41:55.883Z,4.50
2019-05-06T01:44:25.804Z,4.50
2019-05-06T01:46:55.134Z,4.40
2019-05-06T01:49:24.640Z,4.40
2019-05-06T01:51:54.655Z,4.30
2019-05-06T01:54:24.922Z,4.20
2019-05-06T01:56:54.899Z,4.10
2019-05-06T01:59:24.708Z,4.10
2019-05-06T02:02:00.521Z,4.00
2019-05-06T02:04:25.192Z,4.00
2019-05-06T02:06:54.796Z,4.00
2019-05-06T02:09:24.843Z,3.90
2019-05-06T02:11:54.374Z,4.00
2019-05-06T02:14:24.671Z,3.90
2019-05-06T02:16:54.677Z,4.00
2019-05-06T02:19:24.333Z,4.10
2019-05-06T02:21:59.008Z,4.10
2019-05-06T02:24:34.107Z,4.10
2019-05-06T02:27:04.494Z,4.00
2019-05-06T02:29:36.875Z,4.00
2019-05-06T02:32:25.647Z,3.90
2019-05-06T02:34:54.911Z,3.90
2019-05-06T02:37:29.614Z,3.90
2019-05-06T02:39:58.879Z,3.90
2019-05-06T02:42:28.189Z,3.80
2019-05-06T02:44:57.626Z,3.80
2019-05-06T02:47:54.980Z,3.90
2019-05-06T02:50:25.856Z,3.80
2019-05-06T02:52:55.159Z,3.80
2019-05-06T02:55:24.516Z,3.70
2019-05-06T02:57:54.016Z,3.80
2019-05-06T03:00:24.887Z,3.70
2019-05-06T03:02:54.448Z,3.70
2019-05-06T03:05:23.910Z,3.70
2019-05-06T03:07:57.024Z,3.70
2019-05-06T03:10:24.880Z,3.70
2019-05-06T03:12:54.451Z,3.70
2019-05-06T03:15:24.235Z,3.70
2019-05-06T03:17:55.457Z,3.70
2019-05-06T03:20:43.956Z,3.70
2019-05-06T03:23:14.514Z,3.70
2019-05-06T03:25:44.172Z,3.80
2019-05-06T03:28:13.587Z,3.70
2019-05-06T03:30:45.729Z,3.70
2019-05-06T03:33:37.868Z,3.70
2019-05-06T03:36:00.732Z,3.70
2019-05-06T03:38:15.836Z,3.70
2019-05-06T03:40:45.947Z,3.70
2019-05-06T03:43:16.087Z,3.70
2019-05-06T03:46:03.982Z,3.60
2019-05-06T03:48:35.361Z,3.70
2019-05-06T03:51:04.736Z,3.70
2019-05-06T03:53:35.745Z,3.60
2019-05-06T03:56:05.194Z,3.60
2019-05-06T03:58:37.284Z,3.60
2019-05-06T04:01:06.656Z,3.40
2019-05-06T04:03:47.067Z,3.40
2019-05-06T04:06:06.880Z,3.40
2019-05-06T04:08:36.999Z,3.50
2019-05-06T04:11:06.745Z,3.50
2019-05-06T04:13:36.354Z,3.40
2019-05-06T04:16:27.894Z,3.40
2019-05-06T04:19:19.638Z,3.30
2019-05-06T04:21:58.467Z,3.10
2019-05-06T04:24:38.262Z,3.10
2019-05-06T04:27:34.406Z,3.00
2019-05-06T04:30:04.824Z,3.00
2019-05-06T04:32:34.507Z,3.00
2019-05-06T04:35:04.562Z,3.00
2019-05-06T04:37:34.466Z,3.00
2019-05-06T04:40:04.538Z,3.10
2019-05-06T04:42:34.639Z,3.10
2019-05-06T04:45:04.795Z,3.20
2019-05-06T04:47:34.376Z,3.30
2019-05-06T04:50:04.954Z,3.40
2019-05-06T04:52:34.631Z,3.40
2019-05-06T04:55:04.572Z,3.50
2019-05-06T04:57:33.960Z,3.50
2019-05-06T05:00:04.433Z,3.50
2019-05-06T05:02:34.075Z,3.50
2019-05-06T05:05:04.336Z,3.50
2019-05-06T05:07:34.258Z,3.60
2019-05-06T05:10:08.557Z,3.70
2019-05-06T05:12:46.298Z,3.70
2019-05-06T05:15:41.802Z,3.80
2019-05-06T05:18:33.122Z,3.80
2019-05-06T05:21:02.842Z,3.90
2019-05-06T05:23:32.170Z,3.90
2019-05-06T05:26:02.925Z,3.90
2019-05-06T05:28:32.473Z,3.90
2019-05-06T05:31:03.051Z,3.90
2019-05-06T05:33:32.851Z,3.90
2019-05-06T05:36:02.287Z,3.90
2019-05-06T05:38:32.158Z,3.90
2019-05-06T05:41:03.056Z,4.00
2019-05-06T05:43:47.130Z,4.10
2019-05-06T05:46:16.551Z,4.10
2019-05-06T05:48:55.400Z,4.20
2019-05-06T05:51:24.662Z,4.30
2019-05-06T05:53:54.405Z,4.40
2019-05-06T05:56:24.123Z,4.40
2019-05-06T05:58:53.771Z,4.50
2019-05-06T06:01:23.971Z,4.60
2019-05-06T06:03:53.306Z,4.60
2019-05-06T06:06:22.625Z,4.70
2019-05-06T06:08:52.451Z,4.80
2019-05-06T06:11:29.614Z,4.90
2019-05-06T06:14:02.981Z,5.00
2019-05-06T06:16:54.371Z,5.00
2019-05-06T06:19:29.787Z,5.10
2019-05-06T06:22:02.728Z,5.20
2019-05-06T06:24:34.193Z,5.30
2019-05-06T06:27:03.561Z,5.30
2019-05-06T06:29:33.080Z,5.30
2019-05-06T06:32:20.090Z,5.40
2019-05-06T06:35:13.818Z,5.40
2019-05-06T06:37:52.354Z,5.50
2019-05-06T06:40:23.711Z,5.60
2019-05-06T06:42:57.522Z,5.60
2019-05-06T06:45:26.827Z,5.80
2019-05-06T06:47:56.270Z,5.90
2019-05-06T06:50:25.522Z,5.90
2019-05-06T06:52:54.887Z,6.10
2019-05-06T06:55:24.292Z,6.30
2019-05-06T06:58:20.094Z,6.30
2019-05-06T07:01:07.375Z,6.30
2019-05-06T07:04:02.614Z,6.20
2019-05-06T07:06:42.337Z,6.40
2019-05-06T07:09:12.566Z,6.60
2019-05-06T07:11:42.790Z,6.80
2019-05-06T07:14:13.711Z,6.80
2019-05-06T07:16:43.209Z,7.00
2019-05-06T07:19:14.630Z,7.10
2019-05-06T07:21:55.930Z,7.10
2019-05-06T07:24:25.553Z,7.20
2019-05-06T07:27:13.826Z,7.20
2019-05-06T07:29:48.272Z,7.50
2019-05-06T07:32:15.514Z,7.60
2019-05-06T07:34:44.955Z,7.30
2019-05-06T07:37:14.235Z,7.40
2019-05-06T07:39:43.535Z,7.50
2019-05-06T07:42:18.617Z,7.50
2019-05-06T07:45:06.477Z,7.60
2019-05-06T07:47:42.652Z,7.80
2019-05-06T07:50:13.050Z,7.80
2019-05-06T07:53:02.372Z,8.00
2019-05-06T07:55:32.747Z,8.10
2019-05-06T07:58:02.906Z,8.10
2019-05-06T08:00:32.810Z,8.20
2019-05-06T08:03:02.700Z,8.30
2019-05-06T08:05:32.509Z,8.20
2019-05-06T08:08:03.612Z,8.20
2019-05-06T08:10:33.386Z,8.40
2019-05-06T08:13:03.058Z,8.60
2019-05-06T08:15:32.987Z,8.60
2019-05-06T08:18:03.457Z,8.90
2019-05-06T08:20:39.028Z,9.10
2019-05-06T08:23:28.960Z,8.90
2019-05-06T08:26:10.083Z,8.80
2019-05-06T08:28:38.554Z,9.20
2019-05-06T08:31:02.382Z,9.50
2019-05-06T08:33:32.733Z,9.10
2019-05-06T08:36:11.579Z,9.30
2019-05-06T08:38:53.247Z,9.40
2019-05-06T08:41:22.852Z,9.40
2019-05-06T08:43:52.963Z,9.20
2019-05-06T08:46:23.437Z,9.10
2019-05-06T08:48:53.230Z,8.90
2019-05-06T08:51:42.405Z,9.00
2019-05-06T08:54:16.974Z,9.30
2019-05-06T08:56:46.238Z,9.70
2019-05-06T08:59:15.503Z,9.30
2019-05-06T09:01:53.443Z,9.30
2019-05-06T09:04:23.049Z,8.80
2019-05-06T09:06:53.463Z,8.60
2019-05-06T09:09:23.021Z,8.60
2019-05-06T09:11:53.540Z,8.40
2019-05-06T09:14:23.642Z,8.00
2019-05-06T09:16:54.090Z,8.00
2019-05-06T09:19:23.615Z,7.90
2019-05-06T09:21:53.517Z,7.90
2019-05-06T09:24:23.272Z,8.00
2019-05-06T09:26:57.315Z,7.70
2019-05-06T09:29:33.175Z,7.70
2019-05-06T09:32:06.632Z,7.90
2019-05-06T09:34:44.788Z,8.20
2019-05-06T09:37:14.866Z,8.60
2019-05-06T09:39:45.411Z,9.00
2019-05-06T09:42:14.927Z,10.00
2019-05-06T09:44:45.303Z,10.40
2019-05-06T09:47:27.761Z,9.90
2019-05-06T09:49:57.014Z,9.60
2019-05-06T09:52:26.344Z,9.20
2019-05-06T09:55:05.255Z,9.20
2019-05-06T09:57:53.606Z,9.60
2019-05-06T10:00:23.535Z,9.90
2019-05-06T10:02:53.354Z,10.10
2019-05-06T10:05:22.702Z,10.40
2019-05-06T10:07:52.376Z,10.70
2019-05-06T10:10:22.330Z,11.10
2019-05-06T10:12:53.009Z,10.80
2019-05-06T10:15:22.943Z,10.40
2019-05-06T10:18:08.026Z,9.90
2019-05-06T10:20:43.086Z,9.40
2019-05-06T10:23:13.335Z,9.20
2019-05-06T10:25:43.703Z,9.20
2019-05-06T10:28:48.563Z,9.20
2019-05-06T10:31:18.859Z,9.40
2019-05-06T10:34:05.680Z,9.90
2019-05-06T10:36:46.820Z,10.20
2019-05-06T10:39:18.063Z,10.20
2019-05-06T10:41:50.243Z,10.10
2019-05-06T10:44:38.438Z,10.20
2019-05-06T10:47:07.761Z,10.60
2019-05-06T10:49:37.037Z,11.20
2019-05-06T10:52:21.889Z,11.70
2019-05-06T10:54:51.275Z,11.80
2019-05-06T10:57:26.090Z,12.10
2019-05-06T10:59:55.385Z,11.90
2019-05-06T11:02:46.579Z,12.10
2019-05-06T11:05:15.971Z,12.10
2019-05-06T11:07:45.251Z,12.40
2019-05-06T11:10:24.380Z,12.90
2019-05-06T11:12:45.994Z,13.50
2019-05-06T11:15:15.384Z,13.80
2019-05-06T11:17:44.736Z,13.70
2019-05-06T11:20:14.230Z,13.80
2019-05-06T11:22:43.789Z,13.20
2019-05-06T11:25:13.688Z,12.80
2019-05-06T11:27:45.187Z,12.40
2019-05-06T11:30:24.827Z,12.00
2019-05-06T11:33:04.655Z,12.00
2019-05-06T11:35:52.846Z,11.60
2019-05-06T11:38:22.870Z,11.50
2019-05-06T11:40:52.925Z,11.60
2019-05-06T11:43:22.901Z,11.40
2019-05-06T11:45:52.342Z,11.20
2019-05-06T11:48:22.320Z,11.50
2019-05-06T11:50:54.228Z,11.80
2019-05-06T11:53:23.546Z,12.00
2019-05-06T11:55:54.764Z,12.00
2019-05-06T11:58:58.135Z,11.50
2019-05-06T12:01:35.551Z,11.40
2019-05-06T12:04:04.819Z,11.70
2019-05-06T12:06:34.312Z,12.30
2019-05-06T12:09:06.470Z,12.20
2019-05-06T12:11:35.941Z,12.40
2019-05-06T12:14:05.646Z,12.20
2019-05-06T12:16:35.072Z,12.30
2019-05-06T12:19:04.434Z,12.30
2019-05-06T12:21:33.759Z,11.90
2019-05-06T12:24:03.147Z,11.30
2019-05-06T12:26:32.479Z,11.00
2019-05-06T12:29:02.321Z,10.60
2019-05-06T12:31:32.801Z,10.60
2019-05-06T12:34:02.822Z,10.30
2019-05-06T12:36:32.693Z,10.30
2019-05-06T12:39:26.259Z,10.20
2019-05-06T12:42:02.580Z,10.30
2019-05-06T12:44:33.346Z,10.60
2019-05-06T12:47:20.446Z,10.30
2019-05-06T12:49:49.825Z,10.30
2019-05-06T12:52:19.096Z,10.30
2019-05-06T12:54:48.309Z,10.60
2019-05-06T12:57:17.578Z,10.80
2019-05-06T12:59:46.855Z,10.60
2019-05-06T13:02:16.126Z,10.80
2019-05-06T13:04:55.294Z,10.80
2019-05-06T13:07:22.883Z,10.80
2019-05-06T13:09:52.873Z,10.70
2019-05-06T13:12:25.472Z,10.50
2019-05-06T13:14:54.819Z,10.40
2019-05-06T13:17:32.758Z,10.30
2019-05-06T13:20:01.621Z,10.40
2019-05-06T13:22:42.850Z,10.40
2019-05-06T13:25:13.574Z,10.30
2019-05-06T13:27:43.462Z,10.30
2019-05-06T13:30:14.006Z,10.40
2019-05-06T13:32:47.953Z,10.50
2019-05-06T13:35:17.245Z,10.40
2019-05-06T13:37:46.456Z,10.30
2019-05-06T13:40:16.029Z,10.50
2019-05-06T13:43:13.572Z,10.40
2019-05-06T13:45:45.075Z,10.50
2019-05-06T13:48:22.894Z,10.60
2019-05-06T13:50:55.282Z,10.70
2019-05-06T13:53:38.689Z,10.80
2019-05-06T13:55:55.653Z,10.70
2019-05-06T13:58:24.910Z,10.70
2019-05-06T14:00:54.350Z,11.00
2019-05-06T14:03:23.623Z,11.00
2019-05-06T14:05:53.079Z,11.20
2019-05-06T14:08:22.442Z,11.10
2019-05-06T14:10:59.186Z,10.70
2019-05-06T14:13:23.361Z,10.50
2019-05-06T14:15:52.898Z,10.50
2019-05-06T14:18:22.634Z,10.70
2019-05-06T14:20:52.227Z,10.90
2019-05-06T14:23:22.028Z,11.00
2019-05-06T14:26:07.271Z,11.20
2019-05-06T14:28:42.966Z,11.30
2019-05-06T14:31:33.673Z,11.40
2019-05-06T14:34:03.031Z,11.50
2019-05-06T14:36:32.890Z,11.70
2019-05-06T14:39:04.692Z,11.70
2019-05-06T14:41:33.378Z,11.40
2019-05-06T14:44:05.228Z,11.50
2019-05-06T14:46:54.488Z,11.70
2019-05-06T14:49:23.811Z,11.60
2019-05-06T14:51:53.769Z,11.60
2019-05-06T14:54:23.169Z,11.50
2019-05-06T14:56:56.967Z,11.50
2019-05-06T14:59:26.243Z,11.80
2019-05-06T15:01:55.552Z,11.80
2019-05-06T15:04:24.954Z,11.80
2019-05-06T15:06:54.422Z,11.80
2019-05-06T15:09:23.891Z,11.70
2019-05-06T15:11:53.291Z,11.50
2019-05-06T15:14:22.799Z,11.80
2019-05-06T15:16:52.930Z,11.80
2019-05-06T15:19:22.839Z,11.90
2019-05-06T15:21:53.116Z,11.80
2019-05-06T15:24:24.359Z,11.40
2019-05-06T15:26:53.631Z,11.20
2019-05-06T15:29:23.728Z,10.80
2019-05-06T15:32:22.204Z,10.50
2019-05-06T15:35:09.459Z,10.70
2019-05-06T15:37:49.016Z,10.70
2019-05-06T15:40:31.050Z,10.50
2019-05-06T15:42:49.771Z,10.50
2019-05-06T15:45:19.275Z,10.30
2019-05-06T15:47:48.569Z,10.40
2019-05-06T15:50:18.323Z,10.70
2019-05-06T15:52:47.691Z,10.90
2019-05-06T15:55:17.154Z,11.20
2019-05-06T15:57:46.455Z,11.10
2019-05-06T16:00:19.195Z,11.20
2019-05-06T16:02:48.639Z,11.00
2019-05-06T16:05:20.274Z,10.80
2019-05-06T16:07:49.072Z,10.60
2019-05-06T16:10:18.765Z,10.80
2019-05-06T16:12:48.885Z,10.40
2019-05-06T16:15:18.769Z,10.30
2019-05-06T16:17:48.052Z,10.10
2019-05-06T16:20:17.350Z,10.10
2019-05-06T16:22:52.082Z,10.10
2019-05-06T16:25:20.858Z,10.40
2019-05-06T16:27:54.595Z,10.40
2019-05-06T16:30:24.534Z,10.20
2019-05-06T16:32:53.932Z,10.30
2019-05-06T16:35:23.241Z,10.40
2019-05-06T16:37:52.494Z,10.50
2019-05-06T16:40:23.092Z,10.20
2019-05-06T16:42:54.374Z,10.10
2019-05-06T16:45:23.683Z,9.90
2019-05-06T16:47:53.159Z,9.70
2019-05-06T16:50:24.134Z,9.60
2019-05-06T16:52:53.402Z,9.50
2019-05-06T16:55:29.285Z,9.30
2019-05-06T16:58:04.078Z,9.30
2019-05-06T17:00:35.035Z,9.20
2019-05-06T17:03:14.563Z,9.20
2019-05-06T17:06:02.109Z,9.20
2019-05-06T17:08:33.341Z,9.30
2019-05-06T17:11:04.670Z,9.30
2019-05-06T17:13:34.742Z,9.30
2019-05-06T17:16:04.539Z,9.30
2019-05-06T17:18:33.882Z,9.40
2019-05-06T17:21:03.306Z,9.30
2019-05-06T17:23:32.585Z,9.30
2019-05-06T17:26:01.942Z,9.30
2019-05-06T17:28:40.648Z,9.40
2019-05-06T17:31:28.953Z,9.40
2019-05-06T17:33:59.520Z,9.60
2019-05-06T17:36:32.432Z,10.20
2019-05-06T17:39:02.685Z,10.60
2019-05-06T17:41:45.162Z,10.80
2019-05-06T17:44:03.126Z,11.00
2019-05-06T17:46:36.961Z,10.80
2019-05-06T17:49:15.451Z,10.40
2019-05-06T17:52:06.434Z,9.90
2019-05-06T17:54:35.759Z,9.70
2019-05-06T17:57:05.065Z,9.60
2019-05-06T17:59:37.261Z,9.40
2019-05-06T18:02:09.194Z,9.30
2019-05-06T18:04:38.456Z,9.20
2019-05-06T18:07:07.821Z,9.10
2019-05-06T18:09:37.140Z,9.10
2019-05-06T18:12:06.361Z,9.00
2019-05-06T18:14:35.778Z,9.00
2019-05-06T18:17:05.078Z,8.90
2019-05-06T18:19:34.353Z,8.90
2019-05-06T18:22:03.627Z,8.90
2019-05-06T18:24:33.450Z,8.90
2019-05-06T18:27:03.180Z,8.90
2019-05-06T18:29:33.563Z,8.90
2019-05-06T18:32:03.997Z,8.90
2019-05-06T18:34:33.419Z,9.00
2019-05-06T18:37:03.338Z,9.00
2019-05-06T18:39:33.886Z,8.90
2019-05-06T18:42:16.015Z,8.80
2019-05-06T18:44:34.490Z,8.80
2019-05-06T18:47:03.815Z,8.80
2019-05-06T18:49:33.970Z,8.70
2019-05-06T18:52:03.378Z,8.70
2019-05-06T18:54:33.861Z,8.80
2019-05-06T18:57:04.970Z,8.90
2019-05-06T18:59:36.960Z,8.90
2019-05-06T19:02:05.646Z,8.90
2019-05-06T19:04:45.647Z,8.90
2019-05-06T19:07:17.156Z,9.00
2019-05-06T19:09:59.355Z,8.90
2019-05-06T19:12:36.764Z,9.00
2019-05-06T19:14:59.763Z,9.00
2019-05-06T19:17:29.089Z,9.00
2019-05-06T19:19:58.363Z,9.00
2019-05-06T19:22:27.629Z,9.00
2019-05-06T19:24:56.920Z,9.00
2019-05-06T19:27:26.183Z,9.00
2019-05-06T19:29:55.451Z,9.00
2019-05-06T19:32:24.764Z,9.00
2019-05-06T19:34:54.044Z,8.90
2019-05-06T19:37:23.494Z,8.90
2019-05-06T19:39:52.851Z,8.90
2019-05-06T19:42:22.535Z,9.00
2019-05-06T19:44:52.877Z,9.00
2019-05-06T19:47:22.519Z,9.00
2019-05-06T19:49:53.248Z,9.00
2019-05-06T19:52:24.991Z,9.00
2019-05-06T19:54:53.717Z,9.00
2019-05-06T19:57:22.994Z,9.00
2019-05-06T19:59:52.255Z,9.00
2019-05-06T20:02:25.219Z,8.90
2019-05-06T20:04:56.760Z,8.90
2019-05-06T20:07:52.135Z,8.90
2019-05-06T20:10:36.497Z,9.00
2019-05-06T20:13:05.855Z,8.90
2019-05-06T20:15:36.302Z,8.90
2019-05-06T20:18:06.121Z,8.80
2019-05-06T20:20:35.857Z,8.80
2019-05-06T20:23:05.327Z,8.70
2019-05-06T20:25:36.948Z,8.70
2019-05-06T20:28:05.929Z,8.60
2019-05-06T20:30:35.295Z,8.40
2019-05-06T20:33:05.350Z,8.40
2019-05-06T20:35:34.622Z,8.30
2019-05-06T20:38:03.999Z,8.50
2019-05-06T20:40:33.265Z,8.50
2019-05-06T20:43:16.519Z,8.50
2019-05-06T20:45:35.539Z,8.30
2019-05-06T20:48:04.611Z,8.20
2019-05-06T20:50:33.930Z,8.10
2019-05-06T20:53:03.373Z,8.00
2019-05-06T20:55:35.576Z,7.90
2019-05-06T20:58:03.730Z,7.80
2019-05-06T21:00:33.570Z,7.70
2019-05-06T21:03:03.042Z,7.80
2019-05-06T21:05:32.481Z,7.90
2019-05-06T21:08:02.320Z,7.80
2019-05-06T21:10:32.918Z,7.80
2019-05-06T21:13:02.542Z,7.90
2019-05-06T21:15:32.566Z,7.90
2019-05-06T21:18:04.317Z,8.00
2019-05-06T21:20:33.237Z,8.10
2019-05-06T21:23:02.602Z,8.20
2019-05-06T21:25:32.273Z,8.10
2019-05-06T21:28:02.906Z,8.10
2019-05-06T21:30:32.531Z,8.00
2019-05-06T21:33:02.052Z,8.10
2019-05-06T21:35:33.229Z,8.10
2019-05-06T21:38:02.757Z,8.10
2019-05-06T21:40:32.504Z,8.00
2019-05-06T21:43:02.294Z,7.90
2019-05-06T21:45:33.157Z,7.90
2019-05-06T21:48:03.086Z,7.90
2019-05-06T21:50:33.031Z,7.90
2019-05-06T21:53:03.019Z,7.90
2019-05-06T21:55:32.583Z,7.90
2019-05-06T21:58:02.324Z,7.90
2019-05-06T22:00:43.464Z,7.80
2019-05-06T22:03:13.418Z,7.80
2019-05-06T22:05:43.218Z,7.70
2019-05-06T22:08:13.005Z,7.70
2019-05-06T22:10:42.492Z,7.60
2019-05-06T22:13:14.344Z,7.70
2019-05-06T22:15:42.835Z,7.60
2019-05-06T22:18:12.622Z,7.60
2019-05-06T22:21:00.103Z,7.60
2019-05-06T22:23:49.484Z,7.50
2019-05-06T22:26:18.748Z,7.60
2019-05-06T22:28:48.066Z,7.60
2019-05-06T22:31:17.343Z,7.60
2019-05-06T22:33:46.619Z,7.60
2019-05-06T22:36:15.828Z,7.50
2019-05-06T22:38:45.100Z,7.50
2019-05-06T22:41:14.488Z,7.50
2019-05-06T22:43:43.870Z,7.30
2019-05-06T22:46:13.215Z,7.20
2019-05-06T22:48:43.336Z,7.20
2019-05-06T22:51:12.906Z,7.10
2019-05-06T22:53:42.606Z,7.10
2019-05-06T22:56:14.128Z,7.10
2019-05-06T22:58:43.450Z,7.10
2019-05-06T23:01:32.350Z,7.00
2019-05-06T23:04:02.009Z,7.00
2019-05-06T23:06:32.948Z,7.00
2019-05-06T23:09:02.712Z,7.00
2019-05-06T23:11:32.901Z,7.00
2019-05-06T23:14:03.176Z,7.00
2019-05-06T23:16:34.843Z,7.00
2019-05-06T23:19:03.584Z,7.00
2019-05-06T23:21:33.645Z,7.00
2019-05-06T23:24:03.128Z,6.90
2019-05-06T23:26:32.387Z,6.90
2019-05-06T23:29:02.411Z,6.80
2019-05-06T23:31:33.291Z,6.80
2019-05-06T23:34:04.925Z,6.70
2019-05-06T23:37:23.029Z,6.60
2019-05-06T23:40:34.823Z,6.60
2019-05-06T23:43:42.483Z,6.60
2019-05-06T23:46:47.011Z,6.70
2019-05-06T23:49:52.679Z,6.70
2019-05-06T23:52:57.969Z,6.70
2019-05-06T23:56:03.020Z,6.80
2019-05-06T23:58:32.511Z,6.90
